This is the latest recevied weather packets stored in our database for station/object HS5SQI-2. If no packets are shown the sender has not sent any weather packets the latest 10 day(s).
| Time | Temp. | Humidity | Pressure | Rain* | Wind** | Luminosity | Snow |
|---|---|---|---|---|---|---|---|
| 1777786030 | 36.67° C | 54% | 1006 hPa | - | - | 0 W/m² | - |
| 1777785408 | 36.67° C | 53% | 1006 hPa | - | - | 0 W/m² | - |
| 1777784786 | 37.78° C | 49% | 1007 hPa | - | - | 0 W/m² | - |
| 1777784164 | 38.33° C | 47% | 1007 hPa | - | - | 0 W/m² | - |
| 1777783542 | 38.89° C | 47% | 1007 hPa | - | - | 0 W/m² | - |
| 1777782920 | 38.33° C | 47% | 1007 hPa | - | - | 0 W/m² | - |
| 1777782298 | 38.33° C | 50% | 1007 hPa | - | - | 0 W/m² | - |
| 1777781676 | 37.22° C | 52% | 1007 hPa | - | - | 0 W/m² | - |
| 1777781054 | 37.78° C | 51% | 1007 hPa | - | - | 0 W/m² | - |
| 1777780432 | 38.33° C | 51% | 1008 hPa | - | - | 0 W/m² | - |
| 1777779810 | 37.22° C | 52% | 1008 hPa | - | - | 0 W/m² | - |
| 1777779188 | 37.22° C | 52% | 1008 hPa | - | - | 0 W/m² | - |
| 1777778566 | 37.22° C | 52% | 1008 hPa | - | - | 0 W/m² | - |
| 1777777944 | 37.22° C | 54% | 1008 hPa | - | - | 0 W/m² | - |
| 1777777322 | 36.67° C | 55% | 1008 hPa | - | - | 0 W/m² | - |
| 1777776700 | 36.11° C | 55% | 1008 hPa | - | - | 0 W/m² | - |
| 1777776078 | 36.11° C | 56% | 1008 hPa | - | - | 0 W/m² | - |
| 1777775455 | 35.56° C | 57% | 1008 hPa | - | - | 0 W/m² | - |
| 1777774834 | 35.56° C | 58% | 1008 hPa | - | - | 0 W/m² | - |
| 1777774212 | 34.44° C | 60% | 1008 hPa | - | - | 0 W/m² | - |
| 1777773590 | 35° C | 62% | 1008 hPa | - | - | 0 W/m² | - |
| 1777772967 | 34.44° C | 63% | 1008 hPa | - | - | 0 W/m² | - |
| 1777772345 | 35° C | 66% | 1008 hPa | - | - | 0 W/m² | - |
| 1777771723 | 34.44° C | 69% | 1008 hPa | - | - | 0 W/m² | - |
| 1777771101 | 35° C | 67% | 1008 hPa | - | - | 0 W/m² | - |
* Rain since midnight (hover to see other rain measurements)
** Current wind speed in m/s (hover to see current wind gust speed)